• Join FlightAware (Why Join?)
  • Login
  • US Flag 
12:29AM EST


 

Airport Tracker/Info


-or-


 

Live Flight TrackerFlight Track Log ✈ EJA922 ✈ 09-Sep-2013 ✈ KLAS - KONT

Flight Track Log - Related Links

Times and Time Zones

All times are in EDT time to prevent confusion due to time zone crossing. See the EJA922 flight status page for this flight to view local times or setup timezone preferences in your user account.

Time Position Orientation Groundspeed Altitude Reporting Facility
EDT Latitude Longitude Course Direction KTS MPH feet Rate Location/Type
07:16PM 36.0767 -115.1814 244° Southwest 183 211 4,500  Level Los Angeles Center
07:17PM 36.0419 -115.2697 244° Southwest 259 298 7,000 1,500 Climbing Los Angeles Center
07:18PM 36.0289 -115.2739 194° South 262 302 7,000  Level Los Angeles Center
07:18PM 35.9689 -115.3017 201° Southwest 297 342 7,000  Level Los Angeles Center
07:19PM 35.9503 -115.3053 189° South 289 333 7,000 960 Level Los Angeles Center
07:20PM 35.8664 -115.3114 183° South 296 341 8,400 1,980 Climbing Los Angeles Center
07:21PM 35.7808 -115.3044 176° South 309 356 11,200 2,220 Climbing Los Angeles Center
07:22PM 35.6597 -115.3236 187° South 360 414 13,100 2,340 Climbing Los Angeles Center
07:23PM 35.5811 -115.4225 226° Southwest 392 451 16,100 2,640 Climbing Los Angeles Center
07:24PM 35.5053 -115.5239 227° Southwest 398 458 18,600 2,340 Climbing Los Angeles Center
07:25PM 35.4314 -115.6269 229° Southwest 405 466 20,900 2,040 Climbing Los Angeles Center
07:26PM 35.3542 -115.7303 228° Southwest 410 472 22,800 1,740 Climbing Los Angeles Center
07:27PM 35.2747 -115.8344 227° Southwest 416 479 24,500 1,680 Climbing Los Angeles Center
07:28PM 35.1936 -115.9419 227° Southwest 425 489 26,300 1,380 Climbing Los Angeles Center
07:29PM 35.0947 -116.0744 228° Southwest 439 505 27,700 660 Climbing Los Angeles Center
07:30PM 34.9864 -116.2153 227° Southwest 467 537 28,000 120 Climbing Los Angeles Center
07:32PM 34.8717 -116.3647 227° Southwest 488 562 28,000 -240 Level Los Angeles Center
07:33PM 34.7728 -116.4911 226° Southwest 504 580 27,600 -720 Descending Los Angeles Center
07:34PM 34.6714 -116.6161 225° Southwest 512 589 26,600 -1,980 Descending Los Angeles Center
07:35PM 34.5739 -116.7361 225° Southwest 502 578 23,600 -3,720 Descending Los Angeles Center
07:36PM 34.4628 -116.8697 225° Southwest 482 555 19,000 -4,200 Descending Los Angeles Center
07:37PM 34.3750 -116.9772 225° Southwest 442 509 15,000 -3,420 Descending Los Angeles Center
07:38PM 34.2939 -117.0758 225° Southwest 419 482 12,100 -1,560 Descending Los Angeles Center
07:39PM 34.2258 -117.1567 224° Southwest 347 399 11,900 -360 Descending Los Angeles Center
07:40PM 34.1689 -117.2064 216° Southwest 282 325 11,300 -960 Descending Los Angeles Center
07:41PM 34.1000 -117.2333 198° South 268 308 10,100 -1,620 Descending Southern California TRACON
07:42PM 34.0500 -117.2833 220° Southwest 252 290 8,600 -1,800 Descending Southern California TRACON
07:43PM 34.0500 -117.3500 270° West 231 266 6,600 -2,280 Descending Southern California TRACON
07:44PM 34.0500 -117.4333 270° West 219 252 4,100 -2,160 Descending Southern California TRACON
07:45PM 34.0500 -117.5000 270° West 194 223 2,300 -1,260 Descending Southern California TRACON
07:46PM 34.0500 -117.5500 270° West 167 192 1,600 -480 Descending Southern California TRACON
07:47PM 34.0528 -117.6147 273° West 171 197 1,100 -360 Descending Los Angeles Center
07:49PM 34.0500 -117.6000 North  Level FlightAware Approximate
07:56PM 34.0560 -117.6012 North  Level Estimated